Time;durP1;ratioP1;P1;durP2;ratioP2;P2;SDS_P1;SDS_P2;PMS_P1;PMS_P2;Temp;Humidity;BMP_temperature;BMP_pressure;BME280_temperature;BME280_humidity;BME280_pressure;Samples;Min_cycle;Max_cycle;Signal;HPM_P1;HPM_P2
2022/03/14 00:01:38;;;;;;;18.85;10.25;;;5.60;44.30;;;;;;5071955;28;20032;-63
2022/03/14 00:04:04;;;;;;;25.67;11.05;;;5.60;44.30;;;;;;5081200;28;20425;-64
2022/03/14 00:06:30;;;;;;;16.90;9.00;;;5.60;44.30;;;;;;5076234;28;20082;-65
2022/03/14 00:08:57;;;;;;;16.67;8.95;;;5.60;44.50;;;;;;5078522;28;20051;-64
2022/03/14 00:11:26;;;;;;;18.23;9.07;;;5.60;44.60;;;;;;5086960;28;20028;-64
2022/03/14 00:13:55;;;;;;;17.75;9.88;;;5.60;44.70;;;;;;5071050;28;20067;-63
2022/03/14 00:16:25;;;;;;;17.48;9.70;;;5.60;44.60;;;;;;5089951;28;20033;-63
2022/03/14 00:18:53;;;;;;;16.35;8.95;;;5.60;44.60;;;;;;5067145;28;20036;-63
2022/03/14 00:21:23;;;;;;;17.65;9.63;;;5.60;44.80;;;;;;5088779;28;20029;-62
2022/03/14 00:23:51;;;;;;;17.80;9.98;;;5.60;45.10;;;;;;5085140;28;20056;-64
2022/03/14 00:26:16;;;;;;;24.67;11.05;;;5.60;45.00;;;;;;5081399;28;20025;-64
2022/03/14 00:28:42;;;;;;;25.90;11.80;;;5.60;45.00;;;;;;5073684;28;20033;-64
2022/03/14 00:31:08;;;;;;;22.30;10.30;;;5.60;45.00;;;;;;5105639;28;20081;-64
2022/03/14 00:33:35;;;;;;;20.00;10.65;;;5.60;45.00;;;;;;5073802;28;20033;-63
2022/03/14 00:36:01;;;;;;;19.40;10.50;;;5.60;45.00;;;;;;5073164;28;20154;-64
2022/03/14 00:38:26;;;;;;;23.17;11.05;;;5.60;45.10;;;;;;5089391;28;20493;-64
2022/03/14 00:40:52;;;;;;;22.27;11.18;;;5.60;45.60;;;;;;5082824;28;20075;-64
2022/03/14 00:43:18;;;;;;;23.15;11.63;;;5.70;45.50;;;;;;5082253;28;20029;-64
2022/03/14 00:45:45;;;;;;;20.83;10.80;;;5.70;45.20;;;;;;5083816;28;20142;-64
2022/03/14 00:48:10;;;;;;;23.50;11.70;;;5.70;45.10;;;;;;5085538;28;20021;-64
2022/03/14 00:50:37;;;;;;;27.38;12.25;;;5.70;45.20;;;;;;5082010;28;20062;-63
2022/03/14 00:53:03;;;;;;;18.55;10.40;;;5.70;45.30;;;;;;5085900;28;20379;-64
2022/03/14 00:55:28;;;;;;;19.58;10.90;;;5.70;45.60;;;;;;5098149;28;20068;-64
2022/03/14 00:57:54;;;;;;;22.45;10.65;;;5.80;45.70;;;;;;5098245;28;20028;-64
2022/03/14 01:00:20;;;;;;;24.20;11.05;;;5.80;45.90;;;;;;5082731;28;20167;-65
2022/03/14 01:02:50;;;;;;;15.95;9.20;;;5.80;45.80;;;;;;5083802;28;20048;-63
2022/03/14 01:05:16;;;;;;;15.80;8.63;;;5.80;45.80;;;;;;5106828;28;20031;-64
2022/03/14 01:07:42;;;;;;;16.63;9.20;;;5.80;45.80;;;;;;5084115;28;20024;-63
2022/03/14 01:10:09;;;;;;;19.15;9.85;;;5.80;45.90;;;;;;5082943;28;20475;-62
2022/03/14 01:12:34;;;;;;;21.15;9.20;;;5.90;46.20;;;;;;5089306;28;20028;-64
2022/03/14 01:15:00;;;;;;;20.17;10.35;;;5.90;46.30;;;;;;5080797;28;20442;-62
2022/03/14 01:17:26;;;;;;;17.27;9.05;;;5.90;46.30;;;;;;5079373;28;20043;-63
2022/03/14 01:19:51;;;;;;;20.65;9.55;;;5.90;46.30;;;;;;5099643;28;20035;-64
2022/03/14 01:22:17;;;;;;;18.55;9.95;;;5.90;46.20;;;;;;5070941;28;20032;-62
2022/03/14 01:24:43;;;;;;;18.58;9.20;;;5.90;46.10;;;;;;5091686;28;20021;-63
2022/03/14 01:27:09;;;;;;;22.27;10.20;;;6.00;46.00;;;;;;5074678;28;20020;-64
2022/03/14 01:29:35;;;;;;;21.63;10.85;;;6.00;45.90;;;;;;5078668;28;20091;-62
2022/03/14 01:32:05;;;;;;;19.92;10.07;;;6.00;46.00;;;;;;5087695;28;20044;-62
2022/03/14 01:34:31;;;;;;;18.88;10.50;;;6.00;46.10;;;;;;5079319;28;20040;-62
2022/03/14 01:36:56;;;;;;;24.60;10.63;;;6.00;45.90;;;;;;5065808;28;20029;-62
2022/03/14 01:39:23;;;;;;;20.52;10.35;;;6.10;46.10;;;;;;5079753;28;20035;-63
2022/03/14 01:41:49;;;;;;;20.60;10.70;;;6.10;46.20;;;;;;5089377;28;20028;-64
2022/03/14 01:44:14;;;;;;;21.42;10.90;;;6.10;46.20;;;;;;5084090;28;20032;-64
2022/03/14 01:46:40;;;;;;;23.40;10.65;;;6.20;46.20;;;;;;5095889;28;20016;-64
2022/03/14 01:49:06;;;;;;;23.50;11.10;;;6.20;46.20;;;;;;5063793;28;20040;-64
2022/03/14 01:51:34;;;;;;;22.75;10.75;;;6.20;46.20;;;;;;5079606;28;20046;-63
2022/03/14 01:54:00;;;;;;;21.02;11.40;;;6.30;46.20;;;;;;5075607;28;20029;-62
2022/03/14 01:56:26;;;;;;;20.27;10.55;;;6.30;46.10;;;;;;5087280;28;20044;-63
2022/03/14 01:58:52;;;;;;;15.88;8.57;;;6.30;46.10;;;;;;5074227;28;20025;-64
2022/03/14 02:01:22;;;;;;;16.98;8.13;;;6.30;46.00;;;;;;5092220;28;20024;-62
2022/03/14 02:03:50;;;;;;;14.63;7.72;;;6.40;46.30;;;;;;5081320;28;20089;-62
2022/03/14 02:06:17;;;;;;;17.17;7.20;;;6.40;45.60;;;;;;5070402;28;20108;-62
2022/03/14 02:08:43;;;;;;;15.45;7.40;;;6.40;45.40;;;;;;5083054;28;20054;-62
2022/03/14 02:11:08;;;;;;;14.82;6.95;;;6.40;45.30;;;;;;5073507;28;20048;-62
2022/03/14 02:13:34;;;;;;;12.27;6.65;;;6.50;45.10;;;;;;5082870;28;20055;-62
2022/03/14 02:15:59;;;;;;;11.50;6.97;;;6.50;45.00;;;;;;5082480;28;20086;-62
2022/03/14 02:18:25;;;;;;;13.13;6.72;;;6.50;45.00;;;;;;5062291;28;20024;-64
2022/03/14 02:20:51;;;;;;;11.48;7.03;;;6.50;45.00;;;;;;5077963;28;20032;-64
2022/03/14 02:23:17;;;;;;;19.88;7.55;;;6.50;45.10;;;;;;5078700;28;20025;-64
2022/03/14 02:25:51;;;;;;;16.42;8.15;;;6.60;45.00;;;;;;5061770;28;20096;-64
2022/03/14 02:28:19;;;;;;;16.60;8.32;;;6.60;45.50;;;;;;5084410;28;20389;-64
2022/03/14 02:30:45;;;;;;;17.13;9.27;;;6.60;44.60;;;;;;5083900;28;20035;-64
2022/03/14 02:33:11;;;;;;;15.25;8.90;;;6.50;44.40;;;;;;5090787;28;20029;-64
2022/03/14 02:35:47;;;;;;;16.23;8.65;;;6.50;44.50;;;;;;5081169;28;20055;-64
2022/03/14 02:38:16;;;;;;;15.18;8.60;;;6.40;45.00;;;;;;5084870;28;20025;-64
2022/03/14 02:40:46;;;;;;;18.45;9.43;;;6.50;44.60;;;;;;5078774;28;20025;-64
2022/03/14 02:43:16;;;;;;;20.15;9.32;;;6.40;44.80;;;;;;5081560;28;20047;-64
2022/03/14 02:45:43;;;;;;;15.90;9.27;;;6.40;45.00;;;;;;5091502;28;20051;-64
2022/03/14 02:48:10;;;;;;;14.93;8.43;;;6.40;45.10;;;;;;5068674;28;20498;-64
2022/03/14 02:50:42;;;;;;;15.40;8.75;;;6.40;45.30;;;;;;5095574;28;20036;-64
2022/03/14 02:53:08;;;;;;;13.63;8.40;;;6.50;45.50;;;;;;5090476;28;20028;-63
2022/03/14 02:55:36;;;;;;;13.57;8.23;;;6.50;45.40;;;;;;5095468;28;20013;-62
2022/03/14 02:58:01;;;;;;;18.83;10.77;;;6.50;45.70;;;;;;5074866;28;20048;-63
2022/03/14 03:00:27;;;;;;;20.75;9.90;;;6.50;46.00;;;;;;5083963;28;20092;-64
2022/03/14 03:02:53;;;;;;;16.35;9.30;;;6.50;46.50;;;;;;5078755;28;20044;-64
2022/03/14 03:05:18;;;;;;;17.88;9.65;;;6.60;46.00;;;;;;5081637;28;20039;-63
2022/03/14 03:07:47;;;;;;;22.33;12.68;;;6.70;47.10;;;;;;5082322;28;20077;-62
2022/03/14 03:10:12;;;;;;;25.10;12.13;;;6.80;48.70;;;;;;5087434;28;20083;-64
2022/03/14 03:12:40;;;;;;;17.35;10.32;;;7.00;48.80;;;;;;5099052;28;20039;-63
2022/03/14 03:15:07;;;;;;;22.10;10.98;;;7.20;47.60;;;;;;5076094;28;20029;-62
2022/03/14 03:17:33;;;;;;;20.75;11.68;;;7.50;47.90;;;;;;5084703;28;20043;-63
2022/03/14 03:19:58;;;;;;;20.67;11.52;;;7.70;47.50;;;;;;5077245;28;20115;-62
2022/03/14 03:22:26;;;;;;;18.58;10.60;;;7.90;47.60;;;;;;5087087;28;20017;-63
2022/03/14 03:24:52;;;;;;;19.67;11.30;;;8.10;47.40;;;;;;5080379;28;20021;-63
2022/03/14 03:27:19;;;;;;;22.27;11.20;;;8.30;47.30;;;;;;5087746;28;20031;-65
2022/03/14 03:29:45;;;;;;;19.95;12.00;;;8.50;47.30;;;;;;5072660;28;20037;-65
2022/03/14 03:32:11;;;;;;;19.45;11.82;;;8.60;47.20;;;;;;5092354;28;20020;-64
2022/03/14 03:34:37;;;;;;;22.58;11.23;;;8.70;47.10;;;;;;5081387;28;20075;-64
2022/03/14 03:37:02;;;;;;;18.13;10.20;;;8.80;46.90;;;;;;5086384;28;20040;-63
2022/03/14 03:39:30;;;;;;;18.35;10.45;;;8.80;46.30;;;;;;5079941;28;20021;-63
2022/03/14 03:41:56;;;;;;;18.83;11.60;;;8.80;46.40;;;;;;5093755;28;20020;-63
2022/03/14 03:44:21;;;;;;;17.98;11.07;;;8.90;46.30;;;;;;5074834;28;20067;-63
2022/03/14 03:46:47;;;;;;;19.17;11.23;;;8.90;46.20;;;;;;5097511;28;20032;-64
2022/03/14 03:49:13;;;;;;;19.77;11.63;;;8.90;46.40;;;;;;5074201;28;20045;-64
2022/03/14 03:51:39;;;;;;;17.75;10.65;;;8.90;46.60;;;;;;5085303;28;20032;-64
2022/03/14 03:54:04;;;;;;;19.45;11.40;;;8.90;46.20;;;;;;5095436;28;20027;-63
2022/03/14 03:56:32;;;;;;;22.52;12.75;;;8.90;46.70;;;;;;5075430;28;20087;-63
2022/03/14 03:58:58;;;;;;;20.00;11.65;;;8.90;48.20;;;;;;5058802;28;20534;-64
2022/03/14 04:01:24;;;;;;;20.73;13.05;;;9.00;47.80;;;;;;5089456;28;20029;-62
2022/03/14 04:03:54;;;;;;;18.95;12.07;;;9.00;48.40;;;;;;5084244;28;20078;-62
2022/03/14 04:06:30;;;;;;;20.33;12.57;;;9.10;48.80;;;;;;5092739;28;20032;-63
2022/03/14 04:08:57;;;;;;;20.13;13.43;;;9.20;49.40;;;;;;5073572;28;20095;-64
2022/03/14 04:11:23;;;;;;;20.58;13.25;;;9.20;49.50;;;;;;5089240;28;20517;-64
2022/03/14 04:13:58;;;;;;;20.38;14.40;;;9.30;49.80;;;;;;5082222;28;20039;-64
2022/03/14 04:16:26;;;;;;;19.45;12.75;;;9.40;53.80;;;;;;5076662;28;20032;-63
2022/03/14 04:18:53;;;;;;;20.45;13.45;;;9.50;51.80;;;;;;5072201;28;20382;-62
2022/03/14 04:21:19;;;;;;;19.42;12.70;;;9.60;51.80;;;;;;5079634;28;20029;-64
2022/03/14 04:23:45;;;;;;;18.65;12.07;;;9.60;51.10;;;;;;5086347;28;20114;-63
2022/03/14 04:26:11;;;;;;;20.95;12.23;;;9.70;51.20;;;;;;5072532;28;20391;-62
2022/03/14 04:28:39;;;;;;;18.20;12.15;;;9.70;51.40;;;;;;5081459;28;20035;-64
2022/03/14 04:31:09;;;;;;;18.45;11.52;;;9.80;51.40;;;;;;5079412;28;20028;-64
2022/03/14 04:33:36;;;;;;;17.30;11.32;;;9.80;52.00;;;;;;5066521;28;20036;-64
2022/03/14 04:36:02;;;;;;;16.98;10.98;;;9.90;51.70;;;;;;5072774;28;20044;-63
2022/03/14 04:38:28;;;;;;;15.90;10.88;;;9.90;52.00;;;;;;5090170;28;20024;-61
2022/03/14 04:40:55;;;;;;;12.48;9.10;;;9.90;54.10;;;;;;5077972;28;20032;-64
2022/03/14 04:43:21;;;;;;;10.65;7.75;;;10.00;53.20;;;;;;5084799;28;20021;-63
2022/03/14 04:45:48;;;;;;;10.65;6.88;;;10.00;52.40;;;;;;5072193;28;20467;-62
2022/03/14 04:48:14;;;;;;;8.82;6.32;;;10.00;53.00;;;;;;5080077;28;20025;-64
2022/03/14 04:50:41;;;;;;;7.40;5.60;;;10.10;52.70;;;;;;5080716;28;20029;-64
2022/03/14 04:53:08;;;;;;;6.40;4.75;;;10.10;52.80;;;;;;5084295;28;20040;-64
2022/03/14 04:55:35;;;;;;;6.32;4.47;;;10.10;52.50;;;;;;5090930;28;20390;-64
2022/03/14 04:58:01;;;;;;;6.00;4.35;;;10.20;53.10;;;;;;5098658;28;20032;-64
2022/03/14 05:00:30;;;;;;;5.43;4.00;;;10.20;52.50;;;;;;5088459;28;20089;-64
2022/03/14 05:03:05;;;;;;;4.35;3.60;;;10.20;52.70;;;;;;5100842;28;20089;-64
2022/03/14 05:05:31;;;;;;;7.20;3.63;;;10.20;53.30;;;;;;5082793;28;20029;-63
2022/03/14 05:07:57;;;;;;;3.85;3.30;;;10.20;52.70;;;;;;5090472;28;20062;-64
2022/03/14 05:10:23;;;;;;;5.00;3.75;;;10.30;52.90;;;;;;5088422;28;20093;-63
2022/03/14 05:12:49;;;;;;;4.28;3.53;;;10.30;52.90;;;;;;5097735;28;20024;-64
2022/03/14 05:15:18;;;;;;;4.28;3.25;;;10.30;53.00;;;;;;5091297;28;20081;-64
2022/03/14 05:17:45;;;;;;;5.72;3.33;;;10.30;53.20;;;;;;5080159;28;20086;-64
2022/03/14 05:20:11;;;;;;;6.05;3.33;;;10.30;54.30;;;;;;5080488;28;20025;-63
2022/03/14 05:22:51;;;;;;;4.05;3.03;;;10.30;53.60;;;;;;5087447;28;20031;-63
2022/03/14 05:25:18;;;;;;;4.93;3.40;;;10.30;55.30;;;;;;5076298;28;20062;-62
2022/03/14 05:27:45;;;;;;;4.25;3.35;;;10.30;53.70;;;;;;5073884;28;20029;-63
2022/03/14 05:30:11;;;;;;;3.45;2.72;;;10.30;53.60;;;;;;5076855;28;20065;-62
2022/03/14 05:32:37;;;;;;;3.70;2.60;;;10.30;53.90;;;;;;5062376;28;20040;-63
2022/03/14 05:35:04;;;;;;;6.65;2.42;;;10.30;53.90;;;;;;5074447;28;20052;-62
2022/03/14 05:37:30;;;;;;;3.35;2.17;;;10.30;54.20;;;;;;5075241;28;20032;-63
2022/03/14 05:39:56;;;;;;;3.97;2.25;;;10.30;54.40;;;;;;5066643;28;20078;-64
2022/03/14 05:42:22;;;;;;;2.83;2.53;;;10.30;54.30;;;;;;5078753;28;20024;-65
2022/03/14 05:44:48;;;;;;;2.53;2.30;;;10.30;54.40;;;;;;5084333;28;20040;-64
2022/03/14 05:47:14;;;;;;;4.28;2.50;;;10.30;54.60;;;;;;5086522;28;20056;-64
2022/03/14 05:49:39;;;;;;;2.58;2.38;;;10.30;54.80;;;;;;5075700;28;20055;-63
2022/03/14 05:52:06;;;;;;;3.10;2.33;;;10.30;54.90;;;;;;5069731;28;20116;-63
2022/03/14 05:54:34;;;;;;;3.90;2.88;;;10.30;55.00;;;;;;5080062;28;20087;-63
2022/03/14 05:57:00;;;;;;;3.13;2.53;;;10.30;54.90;;;;;;5087762;28;20051;-63
2022/03/14 05:59:26;;;;;;;3.28;2.45;;;10.30;55.20;;;;;;5083666;28;20632;-63
2022/03/14 06:01:52;;;;;;;4.82;2.58;;;10.30;55.10;;;;;;5060179;28;20071;-63
2022/03/14 06:04:18;;;;;;;3.55;2.53;;;10.20;55.20;;;;;;5085170;28;20021;-65
2022/03/14 06:06:44;;;;;;;4.05;3.10;;;10.20;55.20;;;;;;5070618;28;20039;-64
2022/03/14 06:09:10;;;;;;;3.92;2.97;;;10.20;55.50;;;;;;5079462;28;20045;-64
2022/03/14 06:11:38;;;;;;;4.47;3.17;;;10.20;55.80;;;;;;5081665;28;20024;-63
2022/03/14 06:14:05;;;;;;;3.88;3.25;;;10.20;55.90;;;;;;5080550;28;20036;-63
2022/03/14 06:16:31;;;;;;;3.90;2.95;;;10.20;56.10;;;;;;5084271;28;20112;-63
2022/03/14 06:18:56;;;;;;;6.68;3.20;;;10.20;56.30;;;;;;5072669;28;20060;-62
2022/03/14 06:21:22;;;;;;;5.53;2.97;;;10.20;56.30;;;;;;5089174;28;20032;-63
2022/03/14 06:23:47;;;;;;;3.97;2.58;;;10.20;56.50;;;;;;5073128;28;20044;-62
2022/03/14 06:26:14;;;;;;;4.18;2.70;;;10.20;56.60;;;;;;5080790;28;20025;-63
2022/03/14 06:28:40;;;;;;;3.50;2.70;;;10.20;56.70;;;;;;5074683;28;20108;-62
2022/03/14 06:31:09;;;;;;;3.17;2.05;;;10.20;56.80;;;;;;5065279;28;20020;-63
2022/03/14 06:33:34;;;;;;;1.40;1.30;;;10.20;56.70;;;;;;5079084;28;20063;-63
2022/03/14 06:36:00;;;;;;;1.20;1.10;;;10.20;56.20;;;;;;5086273;28;20052;-64
2022/03/14 06:38:26;;;;;;;0.90;0.90;;;10.20;56.40;;;;;;5085578;28;20021;-64
2022/03/14 06:40:54;;;;;;;1.35;1.00;;;10.20;56.30;;;;;;5077546;28;20123;-64
2022/03/14 06:43:21;;;;;;;0.90;0.82;;;10.20;56.20;;;;;;5084182;28;20150;-64
2022/03/14 06:45:47;;;;;;;1.58;1.08;;;10.30;56.20;;;;;;5070559;28;20031;-63
2022/03/14 06:48:13;;;;;;;1.90;1.30;;;10.30;55.90;;;;;;5074102;28;20112;-64
2022/03/14 06:50:39;;;;;;;1.25;1.15;;;10.30;55.80;;;;;;5079606;28;20032;-64
2022/03/14 06:53:04;;;;;;;2.30;1.17;;;10.30;56.30;;;;;;5073254;28;20025;-64
2022/03/14 06:55:30;;;;;;;1.80;1.50;;;10.40;56.20;;;;;;5087196;28;20036;-63
2022/03/14 06:57:56;;;;;;;2.05;1.67;;;10.40;56.20;;;;;;5077576;28;20036;-64
2022/03/14 07:00:23;;;;;;;1.40;1.30;;;10.40;56.10;;;;;;5097848;28;20024;-64
2022/03/14 07:02:48;;;;;;;1.27;1.17;;;10.50;56.00;;;;;;5075635;28;20039;-63
2022/03/14 07:05:23;;;;;;;0.70;0.70;;;10.50;56.10;;;;;;5052395;28;20029;-64
2022/03/14 07:07:52;;;;;;;0.77;0.77;;;10.60;55.90;;;;;;5090980;28;20318;-64
2022/03/14 07:10:18;;;;;;;0.60;0.60;;;10.70;55.60;;;;;;5070704;28;20063;-62
2022/03/14 07:12:49;;;;;;;1.20;0.60;;;10.80;55.60;;;;;;5092843;28;20144;-61
2022/03/14 07:15:21;;;;;;;0.52;0.52;;;10.90;55.70;;;;;;5088129;28;20054;-63
2022/03/14 07:17:47;;;;;;;0.93;0.75;;;11.00;55.50;;;;;;5080322;28;20557;-61
2022/03/14 07:20:13;;;;;;;0.60;0.60;;;11.20;55.30;;;;;;5089574;28;20028;-61
2022/03/14 07:23:08;;;;;;;0.70;0.70;;;11.30;55.40;;;;;;5088584;28;20046;-61
2022/03/14 07:25:39;;;;;;;0.60;0.60;;;11.40;55.90;;;;;;5049078;28;20064;-62
2022/03/14 07:28:08;;;;;;;0.60;0.60;;;11.50;54.90;;;;;;5072232;28;20025;-61
2022/03/14 07:30:35;;;;;;;1.50;0.60;;;11.70;54.80;;;;;;5084332;28;20591;-61
2022/03/14 07:33:01;;;;;;;0.70;0.63;;;11.70;54.20;;;;;;5085255;28;20155;-61
2022/03/14 07:35:29;;;;;;;0.60;0.60;;;11.80;53.90;;;;;;5080774;28;20099;-62
2022/03/14 07:37:55;;;;;;;19.67;0.70;;;11.80;54.10;;;;;;5092481;28;20060;-61
2022/03/14 07:40:21;;;;;;;0.55;0.52;;;11.80;53.90;;;;;;5071371;28;20366;-62
2022/03/14 07:42:48;;;;;;;0.70;0.70;;;11.80;53.80;;;;;;5094219;28;20028;-63
2022/03/14 07:45:18;;;;;;;1.30;1.20;;;11.80;53.80;;;;;;5089728;28;20024;-62
2022/03/14 07:47:44;;;;;;;0.80;0.80;;;11.90;54.30;;;;;;5090418;28;20016;-63
2022/03/14 07:50:14;;;;;;;0.80;0.80;;;11.90;53.70;;;;;;5082599;28;20037;-61
2022/03/14 07:52:40;;;;;;;0.90;0.60;;;11.90;53.30;;;;;;5090344;28;20040;-63
2022/03/14 07:55:07;;;;;;;2.95;0.85;;;11.90;53.20;;;;;;5076074;28;20084;-61
2022/03/14 07:57:33;;;;;;;0.90;0.90;;;11.90;53.40;;;;;;5089547;28;20040;-61
2022/03/14 08:00:05;;;;;;;0.93;0.70;;;11.90;53.30;;;;;;5077713;28;20025;-63
2022/03/14 08:02:31;;;;;;;0.77;0.77;;;11.90;53.50;;;;;;5084971;28;20083;-61
2022/03/14 08:04:56;;;;;;;0.50;0.50;;;12.00;52.90;;;;;;5090014;28;20055;-63
2022/03/14 08:07:22;;;;;;;1.02;0.80;;;12.00;52.80;;;;;;5090582;28;20062;-63
2022/03/14 08:09:48;;;;;;;0.50;0.50;;;11.90;52.90;;;;;;5072620;28;20154;-63
2022/03/14 08:12:15;;;;;;;0.75;0.60;;;11.90;52.60;;;;;;5098375;28;20474;-63
2022/03/14 08:14:41;;;;;;;0.40;0.40;;;11.90;53.30;;;;;;5089516;28;20375;-62
2022/03/14 08:17:07;;;;;;;0.60;0.50;;;11.90;52.70;;;;;;5095596;28;20028;-61
2022/03/14 08:19:33;;;;;;;0.73;0.68;;;12.00;52.70;;;;;;5088516;28;20027;-64
2022/03/14 08:21:58;;;;;;;0.60;0.60;;;12.00;52.60;;;;;;5076517;28;20379;-61
2022/03/14 08:24:25;;;;;;;1.15;0.60;;;12.00;52.60;;;;;;5100222;28;20020;-62
2022/03/14 08:26:50;;;;;;;5.95;0.82;;;12.00;52.90;;;;;;5076547;28;20024;-63
2022/03/14 08:29:17;;;;;;;0.68;0.68;;;12.00;52.80;;;;;;5081178;28;20087;-61
2022/03/14 08:31:43;;;;;;;0.90;0.50;;;12.10;52.80;;;;;;5082155;28;20020;-64
2022/03/14 08:34:10;;;;;;;4.32;0.50;;;12.20;52.80;;;;;;5095266;28;20046;-61
2022/03/14 08:36:36;;;;;;;0.60;0.60;;;12.30;53.00;;;;;;5076104;28;20057;-63
2022/03/14 08:39:05;;;;;;;0.60;0.60;;;12.40;52.90;;;;;;5080420;28;20088;-63
2022/03/14 08:41:31;;;;;;;0.77;0.70;;;12.50;52.70;;;;;;5087020;28;20077;-62
2022/03/14 08:43:57;;;;;;;0.50;0.50;;;12.60;52.30;;;;;;5083472;28;20476;-62
2022/03/14 08:46:23;;;;;;;3.47;0.63;;;12.70;52.30;;;;;;5083974;28;20083;-64
2022/03/14 08:48:49;;;;;;;0.98;0.60;;;12.80;52.60;;;;;;5090491;28;20119;-63
2022/03/14 08:51:15;;;;;;;1.17;0.50;;;12.90;52.40;;;;;;5094757;28;20033;-63
2022/03/14 08:53:41;;;;;;;1.08;0.50;;;13.10;52.20;;;;;;5084887;28;20054;-63
2022/03/14 08:56:06;;;;;;;0.45;0.45;;;13.20;51.80;;;;;;5088407;28;20093;-63
2022/03/14 08:58:32;;;;;;;1.48;0.60;;;13.30;51.40;;;;;;5083913;28;20040;-63
2022/03/14 09:00:59;;;;;;;0.50;0.50;;;13.30;50.90;;;;;;5089460;28;20028;-63
2022/03/14 09:03:26;;;;;;;0.50;0.50;;;13.30;50.80;;;;;;5084413;28;20088;-61
2022/03/14 09:05:56;;;;;;;0.50;0.50;;;13.30;50.50;;;;;;5075635;28;20078;-61
2022/03/14 09:08:25;;;;;;;0.40;0.40;;;13.30;50.40;;;;;;5082730;28;20078;-63
2022/03/14 09:10:51;;;;;;;1.55;0.50;;;13.30;50.20;;;;;;5082700;28;20126;-63
2022/03/14 09:13:18;;;;;;;9.15;0.85;;;13.30;50.00;;;;;;5071061;28;20077;-62
2022/03/14 09:15:43;;;;;;;0.50;0.50;;;13.30;49.80;;;;;;5071934;28;20029;-63
2022/03/14 09:18:09;;;;;;;0.40;0.40;;;13.30;50.00;;;;;;5078212;28;20043;-64
2022/03/14 09:20:38;;;;;;;1.08;0.50;;;13.30;49.90;;;;;;5093075;28;20029;-62
2022/03/14 09:23:04;;;;;;;1.65;0.63;;;13.30;49.70;;;;;;5086734;28;20033;-63
2022/03/14 09:25:30;;;;;;;1.05;0.50;;;13.30;49.70;;;;;;5092774;28;20031;-63
2022/03/14 09:27:56;;;;;;;0.60;0.60;;;13.40;49.80;;;;;;5070890;28;20036;-62
2022/03/14 09:30:22;;;;;;;0.55;0.55;;;13.40;49.20;;;;;;5065556;28;20040;-63
2022/03/14 09:32:48;;;;;;;1.05;0.60;;;13.50;48.90;;;;;;5089610;28;20028;-62
2022/03/14 09:35:14;;;;;;;3.25;0.60;;;13.60;48.80;;;;;;5085393;28;20073;-62
2022/03/14 09:37:41;;;;;;;1.08;0.98;;;13.70;48.30;;;;;;5080107;28;20107;-62
2022/03/14 09:40:12;;;;;;;1.23;0.80;;;13.70;48.00;;;;;;5078158;28;20056;-62
2022/03/14 09:42:41;;;;;;;4.25;0.93;;;13.70;47.50;;;;;;5080007;28;20021;-61
2022/03/14 09:45:09;;;;;;;0.50;0.50;;;13.60;47.20;;;;;;5074518;28;20144;-61
2022/03/14 09:47:40;;;;;;;0.75;0.40;;;13.50;46.70;;;;;;5087076;28;20033;-61
2022/03/14 09:50:26;;;;;;;1.05;0.40;;;13.50;46.90;;;;;;5085266;28;20036;-62
2022/03/14 09:52:55;;;;;;;0.55;0.55;;;13.50;46.90;;;;;;5081147;28;20025;-62
2022/03/14 09:55:22;;;;;;;1.20;0.65;;;13.60;46.90;;;;;;5089858;28;20029;-63
2022/03/14 09:57:48;;;;;;;1.42;0.50;;;13.70;47.00;;;;;;5084579;28;20024;-63
2022/03/14 10:00:15;;;;;;;1.05;0.60;;;13.80;46.90;;;;;;5079376;28;20035;-62
2022/03/14 10:02:42;;;;;;;1.58;0.50;;;14.00;46.70;;;;;;5092732;28;20390;-60
2022/03/14 10:05:12;;;;;;;0.60;0.60;;;14.10;46.40;;;;;;5085850;28;20613;-62
2022/03/14 10:07:40;;;;;;;4.90;0.70;;;14.30;46.10;;;;;;5080236;28;20052;-61
2022/03/14 10:10:06;;;;;;;0.50;0.50;;;14.30;45.30;;;;;;5078927;28;20114;-63
2022/03/14 10:12:33;;;;;;;1.75;0.68;;;14.40;45.20;;;;;;5089021;28;20099;-62
2022/03/14 10:15:04;;;;;;;0.77;0.50;;;14.50;45.40;;;;;;5082726;28;20023;-63
2022/03/14 10:17:31;;;;;;;2.88;0.55;;;14.50;44.60;;;;;;5080600;28;20012;-64
2022/03/14 10:19:59;;;;;;;1.05;0.55;;;14.60;44.80;;;;;;5094544;28;20021;-62
2022/03/14 10:22:33;;;;;;;0.98;0.60;;;14.70;44.40;;;;;;5081377;28;20024;-62
2022/03/14 10:25:09;;;;;;;1.77;0.60;;;14.80;44.40;;;;;;5071127;28;20033;-62
2022/03/14 10:27:35;;;;;;;1.10;0.50;;;14.90;44.50;;;;;;5083763;28;20044;-63
2022/03/14 10:30:02;;;;;;;1.45;0.60;;;15.10;44.00;;;;;;5079224;28;20040;-62
2022/03/14 10:32:33;;;;;;;4.00;0.90;;;15.20;43.80;;;;;;5087414;28;20024;-62
2022/03/14 10:35:05;;;;;;;1.65;0.70;;;15.30;43.70;;;;;;5076159;28;20076;-62
2022/03/14 10:37:32;;;;;;;1.63;0.68;;;15.50;43.20;;;;;;5080731;28;20030;-62
2022/03/14 10:40:06;;;;;;;1.25;0.70;;;15.60;43.40;;;;;;5083190;28;20024;-63
2022/03/14 10:42:42;;;;;;;3.03;0.70;;;15.60;43.00;;;;;;5071226;28;20592;-62
2022/03/14 10:45:13;;;;;;;2.15;0.63;;;15.70;43.00;;;;;;5096136;28;20021;-63
2022/03/14 10:47:54;;;;;;;1.23;0.68;;;15.70;43.00;;;;;;5007410;28;20032;-63
2022/03/14 10:50:34;;;;;;;3.15;1.00;;;15.60;42.40;;;;;;5079383;28;20036;-64
2022/03/14 10:53:20;;;;;;;0.80;0.60;;;15.60;42.10;;;;;;5075636;28;20178;-63
2022/03/14 10:55:48;;;;;;;1.15;0.63;;;15.60;41.50;;;;;;5082626;28;20568;-63
2022/03/14 10:58:19;;;;;;;1.65;0.65;;;15.60;41.90;;;;;;5076211;28;20037;-63
2022/03/14 11:00:58;;;;;;;1.73;0.60;;;15.60;41.70;;;;;;5089875;28;20035;-61
2022/03/14 11:03:35;;;;;;;1.95;0.60;;;15.60;41.50;;;;;;5082051;28;20025;-63
2022/03/14 11:06:07;;;;;;;1.38;0.68;;;15.70;41.10;;;;;;5073607;28;20035;-63
2022/03/14 11:08:47;;;;;;;2.45;0.90;;;15.80;40.60;;;;;;5073027;28;20029;-63
2022/03/14 11:11:14;;;;;;;1.00;0.60;;;15.80;40.30;;;;;;5092159;28;20072;-63
2022/03/14 11:13:44;;;;;;;1.52;0.70;;;15.80;40.70;;;;;;5071097;28;20027;-61
2022/03/14 11:16:22;;;;;;;1.95;0.70;;;15.80;40.40;;;;;;5083393;28;20024;-64
2022/03/14 11:18:49;;;;;;;8.40;1.10;;;15.90;40.30;;;;;;5073926;28;20037;-64
2022/03/14 11:21:16;;;;;;;1.98;0.70;;;16.00;40.70;;;;;;5088616;28;20039;-66
2022/03/14 11:23:44;;;;;;;2.35;0.70;;;16.10;40.00;;;;;;5090250;28;20024;-65
2022/03/14 11:26:11;;;;;;;2.13;0.77;;;16.10;39.60;;;;;;5087285;28;20035;-65
2022/03/14 11:28:40;;;;;;;1.60;0.80;;;16.20;39.90;;;;;;5076033;28;20025;-64
2022/03/14 11:31:05;;;;;;;5.28;2.25;;;16.20;39.80;;;;;;5084204;28;20029;-64
2022/03/14 11:33:33;;;;;;;1.25;0.75;;;16.30;40.30;;;;;;5089428;28;20555;-65
2022/03/14 11:36:00;;;;;;;1.05;0.60;;;16.40;40.60;;;;;;5069170;28;20076;-64
2022/03/14 11:38:28;;;;;;;2.50;0.70;;;16.50;39.70;;;;;;5106229;28;20497;-65
2022/03/14 11:40:54;;;;;;;1.70;0.68;;;16.60;39.40;;;;;;5091072;28;20021;-65
2022/03/14 11:43:20;;;;;;;1.85;0.75;;;16.60;38.80;;;;;;5105630;28;20028;-64
2022/03/14 11:45:53;;;;;;;2.38;0.80;;;16.70;39.10;;;;;;5044971;28;20555;-61
2022/03/14 11:48:20;;;;;;;1.23;0.73;;;16.70;38.60;;;;;;5084959;28;20040;-63
2022/03/14 11:50:57;;;;;;;1.95;0.82;;;16.70;39.00;;;;;;5079718;28;20383;-64
2022/03/14 11:53:25;;;;;;;2.08;0.70;;;16.70;38.80;;;;;;5082694;28;20028;-65
2022/03/14 11:56:06;;;;;;;2.22;0.90;;;16.80;38.90;;;;;;5090658;28;20034;-65
2022/03/14 11:58:36;;;;;;;1.58;0.70;;;16.80;39.10;;;;;;5084482;28;20020;-65
2022/03/14 12:01:20;;;;;;;1.77;0.50;;;16.90;39.40;;;;;;5100814;28;20092;-66
2022/03/14 12:03:52;;;;;;;2.92;1.02;;;17.00;38.30;;;;;;5068934;28;20419;-65
2022/03/14 12:06:47;;;;;;;3.30;1.00;;;17.00;38.60;;;;;;5071994;28;20040;-65
2022/03/14 12:09:24;;;;;;;1.77;1.08;;;17.20;38.20;;;;;;5082935;28;20033;-65
2022/03/14 12:11:54;;;;;;;2.65;0.80;;;17.30;37.80;;;;;;5083295;28;20431;-65
2022/03/14 12:14:42;;;;;;;3.08;0.70;;;17.40;37.00;;;;;;5091758;28;20025;-64
2022/03/14 12:17:13;;;;;;;0.95;0.70;;;17.50;35.10;;;;;;5103934;28;20095;-65
2022/03/14 12:19:42;;;;;;;1.90;0.73;;;17.60;35.80;;;;;;5085567;28;20025;-66
2022/03/14 12:22:16;;;;;;;1.25;0.60;;;17.60;35.20;;;;;;5103969;28;20016;-64
2022/03/14 12:24:44;;;;;;;0.80;0.60;;;17.60;34.40;;;;;;5083640;28;20044;-64
2022/03/14 12:27:42;;;;;;;1.60;0.70;;;17.60;34.90;;;;;;5090054;28;20027;-65
2022/03/14 12:30:19;;;;;;;2.00;0.70;;;17.50;33.70;;;;;;5070893;28;20151;-65
2022/03/14 12:32:45;;;;;;;0.95;0.70;;;17.50;34.40;;;;;;5095929;28;20035;-65
2022/03/14 12:35:21;;;;;;;0.88;0.80;;;17.50;35.10;;;;;;5093457;28;20060;-64
2022/03/14 12:37:52;;;;;;;0.82;0.60;;;17.60;34.80;;;;;;5076340;28;20033;-63
2022/03/14 12:40:20;;;;;;;1.98;0.70;;;17.70;34.50;;;;;;5097870;28;20029;-64
2022/03/14 12:42:55;;;;;;;1.83;0.80;;;17.80;34.30;;;;;;5081845;28;20028;-64
2022/03/14 12:45:40;;;;;;;1.10;0.60;;;17.90;33.80;;;;;;5075519;28;20055;-64
2022/03/14 12:48:15;;;;;;;1.40;0.60;;;17.90;33.60;;;;;;5100405;28;20017;-63
2022/03/14 12:50:49;;;;;;;1.88;0.82;;;18.00;33.90;;;;;;5093438;28;20029;-65